Time;durP1;ratioP1;P1;durP2;ratioP2;P2;SDS_P1;SDS_P2;PMS_P1;PMS_P2;Temp;Humidity;BMP_temperature;BMP_pressure;BME280_temperature;BME280_humidity;BME280_pressure;Samples;Min_cycle;Max_cycle;Signal;HPM_P1;HPM_P2
2021/06/24 00:00:43;;;;;;;7.22;4.28;;;;;;;12.17;83.38;102091.78;4973264;28;20061;-84
2021/06/24 00:03:09;;;;;;;9.40;4.50;;;;;;;12.05;83.66;102074.13;4950073;28;20121;-83
2021/06/24 00:05:34;;;;;;;8.73;5.60;;;;;;;12.17;83.76;102107.06;4964354;28;20113;-84
2021/06/24 00:07:59;;;;;;;10.48;5.03;;;;;;;12.11;84.16;102103.16;4970124;28;20062;-84
2021/06/24 00:10:25;;;;;;;9.75;4.80;;;;;;;12.05;84.01;102099.22;4970605;28;20081;-84
2021/06/24 00:12:51;;;;;;;10.35;4.65;;;;;;;12.06;84.13;102094.66;4969513;28;20018;-85
2021/06/24 00:15:17;;;;;;;7.10;4.57;;;;;;;12.00;84.02;102081.81;4967387;28;20874;-85
2021/06/24 00:17:43;;;;;;;8.68;4.28;;;;;;;12.14;85.05;102102.84;4954632;28;20267;-85
2021/06/24 00:20:09;;;;;;;8.48;4.45;;;;;;;12.25;84.25;102110.72;4954290;28;20065;-83
2021/06/24 00:22:34;;;;;;;10.05;4.57;;;;;;;12.22;83.93;102092.13;4968672;28;20069;-84
2021/06/24 00:25:00;;;;;;;9.52;4.95;;;;;;;12.31;83.51;102107.41;4964886;28;20027;-84
2021/06/24 00:27:25;;;;;;;10.00;4.93;;;;;;;12.21;83.69;102103.94;4965844;28;20049;-84
2021/06/24 00:29:51;;;;;;;9.77;4.57;;;;;;;12.16;83.80;102103.53;4952942;28;20149;-85
2021/06/24 00:32:17;;;;;;;10.48;4.45;;;;;;;12.15;83.90;102118.03;4958709;28;20057;-84
2021/06/24 00:34:42;;;;;;;8.43;4.32;;;;;;;12.10;84.01;102105.00;4952286;28;20098;-83
2021/06/24 00:37:08;;;;;;;8.20;4.10;;;;;;;12.04;84.30;102100.22;4956265;28;20418;-83
2021/06/24 00:39:33;;;;;;;9.38;4.78;;;;;;;11.99;84.38;102096.31;4969626;28;20486;-83
2021/06/24 00:42:00;;;;;;;9.43;4.50;;;;;;;11.94;84.72;102090.50;4974497;28;20247;-84
2021/06/24 00:44:25;;;;;;;7.68;5.05;;;;;;;12.02;84.60;102096.00;4954973;28;20033;-83
2021/06/24 00:46:52;;;;;;;8.38;4.90;;;;;;;12.06;84.27;102094.66;4968472;28;20026;-84
2021/06/24 00:49:17;;;;;;;8.00;4.40;;;;;;;12.05;83.96;102091.13;4967800;28;20029;-85
2021/06/24 00:51:43;;;;;;;9.60;4.43;;;;;;;12.06;83.82;102095.50;4972292;28;20035;-84
2021/06/24 00:54:08;;;;;;;7.78;4.85;;;;;;;12.02;83.89;102107.63;4973063;28;20440;-82
2021/06/24 00:56:34;;;;;;;6.95;4.20;;;;;;;11.90;84.20;102081.88;4966926;28;20124;-83
2021/06/24 00:59:01;;;;;;;8.48;4.13;;;;;;;12.05;84.28;102101.06;4969883;28;20038;-84
2021/06/24 01:01:26;;;;;;;6.50;4.32;;;;;;;11.97;83.69;102082.97;4982504;28;20026;-83
2021/06/24 01:03:52;;;;;;;7.28;4.50;;;;;;;12.10;83.16;102099.59;4963447;28;20539;-84
2021/06/24 01:06:17;;;;;;;9.13;4.72;;;;;;;12.10;83.20;102099.59;4968466;28;20509;-83
2021/06/24 01:08:43;;;;;;;11.30;4.18;;;;;;;12.07;82.78;102099.91;4980165;28;20026;-83
2021/06/24 01:11:08;;;;;;;7.15;3.58;;;;;;;12.09;82.74;102097.94;4958093;28;20501;-83
2021/06/24 01:13:34;;;;;;;7.40;3.70;;;;;;;12.04;82.47;102099.34;4969733;28;20031;-84
2021/06/24 01:15:59;;;;;;;6.03;3.25;;;;;;;11.99;82.10;102096.31;4980303;28;20034;-84
2021/06/24 01:18:25;;;;;;;4.57;3.00;;;;;;;11.96;82.05;102091.19;4965577;28;20029;-83
2021/06/24 01:20:50;;;;;;;4.75;3.00;;;;;;;11.91;81.54;102104.28;4968214;28;20030;-84
2021/06/24 01:23:16;;;;;;;6.13;3.00;;;;;;;11.83;81.96;102097.78;4972804;28;20046;-84
2021/06/24 01:25:41;;;;;;;6.00;3.25;;;;;;;11.69;82.16;102083.97;4955371;28;20034;-84
2021/06/24 01:28:09;;;;;;;4.07;3.20;;;;;;;11.79;82.34;102107.16;4963106;28;20022;-84
2021/06/24 01:30:36;;;;;;;3.53;2.90;;;;;;;11.66;82.11;102082.41;4963547;28;20038;-84
2021/06/24 01:33:03;;;;;;;5.63;3.20;;;;;;;11.75;81.98;102088.72;4949885;28;20371;-84
2021/06/24 01:35:29;;;;;;;4.53;3.00;;;;;;;11.75;81.88;102095.00;4951679;28;20022;-84
2021/06/24 01:37:57;;;;;;;6.38;3.83;;;;;;;11.75;81.90;102095.00;4987951;28;20057;-84
2021/06/24 01:40:22;;;;;;;8.65;3.17;;;;;;;11.55;81.83;102071.84;4989708;28;20026;-84
2021/06/24 01:42:48;;;;;;;7.57;3.90;;;;;;;11.56;81.96;102079.75;4970355;28;20026;-84
2021/06/24 01:45:13;;;;;;;5.28;3.97;;;;;;;11.69;82.44;102097.44;4952577;28;20050;-84
2021/06/24 01:47:39;;;;;;;6.88;4.40;;;;;;;11.65;82.93;102084.25;4965830;28;20339;-85
2021/06/24 01:50:09;;;;;;;7.43;3.78;;;;;;;11.71;83.42;102082.81;4951565;28;20037;-83
2021/06/24 01:52:34;;;;;;;7.68;4.60;;;;;;;11.73;83.23;102078.13;4970837;28;20026;-84
2021/06/24 01:54:59;;;;;;;7.78;4.18;;;;;;;11.77;83.20;102084.03;4950662;28;20034;-84
2021/06/24 01:57:25;;;;;;;7.60;3.90;;;;;;;11.80;82.71;102086.44;4966656;28;20184;-84
2021/06/24 01:59:50;;;;;;;10.27;4.70;;;;;;;11.78;83.14;102081.22;4950501;28;20034;-84
2021/06/24 02:02:16;;;;;;;7.20;4.35;;;;;;;11.77;83.11;102087.59;4965753;28;20031;-83
2021/06/24 02:04:41;;;;;;;8.32;4.25;;;;;;;11.60;83.33;102065.00;4977747;28;20657;-84
2021/06/24 02:07:07;;;;;;;8.10;4.72;;;;;;;11.57;83.93;102065.31;4967634;28;20036;-85
2021/06/24 02:09:32;;;;;;;8.60;4.93;;;;;;;11.47;84.01;102067.22;4964581;28;20422;-84
2021/06/24 02:11:58;;;;;;;11.07;5.00;;;;;;;11.56;84.68;102084.31;4979128;28;20037;-84
2021/06/24 02:14:25;;;;;;;7.88;4.45;;;;;;;11.49;84.71;102064.38;4946165;28;20475;-84
2021/06/24 02:16:50;;;;;;;8.57;4.60;;;;;;;11.47;84.61;102060.97;4982393;28;20038;-85
2021/06/24 02:19:16;;;;;;;7.20;4.90;;;;;;;11.54;84.73;102080.94;4963232;28;20025;-83
2021/06/24 02:21:41;;;;;;;8.45;4.30;;;;;;;11.44;85.22;102062.13;4951010;28;20030;-84
2021/06/24 02:24:06;;;;;;;8.50;4.55;;;;;;;11.53;85.11;102080.06;4967253;28;20475;-83
2021/06/24 02:26:32;;;;;;;5.53;3.92;;;;;;;11.54;84.82;102078.25;4963900;28;20042;-84
2021/06/24 02:28:57;;;;;;;7.35;4.70;;;;;;;11.50;84.61;102066.91;4959309;28;20049;-83
2021/06/24 02:31:24;;;;;;;6.93;3.60;;;;;;;11.43;84.24;102057.72;4951119;28;20027;-84
2021/06/24 02:33:50;;;;;;;6.80;4.82;;;;;;;11.59;84.13;102067.84;4966249;28;20471;-84
2021/06/24 02:36:15;;;;;;;7.60;3.67;;;;;;;11.49;83.83;102045.53;4979934;28;20030;-84
2021/06/24 02:38:41;;;;;;;5.03;3.22;;;;;;;11.56;83.59;102054.66;4974741;28;20026;-86
2021/06/24 02:41:06;;;;;;;4.85;3.10;;;;;;;11.50;83.57;102050.75;4963293;28;20037;-84
2021/06/24 02:43:32;;;;;;;5.22;3.20;;;;;;;11.62;83.28;102063.00;4950548;28;20034;-84
2021/06/24 02:45:57;;;;;;;5.63;2.67;;;;;;;11.57;83.36;102051.00;4966238;28;20027;-84
2021/06/24 02:48:23;;;;;;;5.53;2.67;;;;;;;11.56;83.57;102052.81;4966119;28;20032;-84
2021/06/24 02:50:48;;;;;;;5.97;3.38;;;;;;;11.69;83.33;102068.63;4960205;28;20035;-83
2021/06/24 02:53:13;;;;;;;5.80;2.75;;;;;;;11.55;82.96;102055.69;4962790;28;20080;-85
2021/06/24 02:55:41;;;;;;;3.92;2.72;;;;;;;11.59;83.31;102062.44;4949283;28;20026;-84
2021/06/24 02:58:06;;;;;;;4.40;3.40;;;;;;;11.62;83.18;102065.72;4957161;28;20476;-84
2021/06/24 03:00:32;;;;;;;6.50;3.78;;;;;;;11.63;83.69;102063.84;4963918;28;20041;-84
2021/06/24 03:02:57;;;;;;;5.40;3.75;;;;;;;11.51;84.24;102051.56;4961011;28;20031;-84
2021/06/24 03:05:22;;;;;;;6.15;3.65;;;;;;;11.64;84.39;102070.94;4948788;28;20027;-84
2021/06/24 03:07:49;;;;;;;6.95;3.65;;;;;;;11.52;84.29;102040.66;4980304;28;20030;-84
2021/06/24 03:10:17;;;;;;;6.85;4.10;;;;;;;11.70;84.40;102059.56;4948828;28;20921;-85
2021/06/24 03:12:43;;;;;;;6.63;4.00;;;;;;;11.66;84.21;102068.94;4980966;28;20049;-84
2021/06/24 03:15:09;;;;;;;7.53;4.50;;;;;;;11.55;85.04;102053.84;4976302;28;20578;-84
2021/06/24 03:17:35;;;;;;;7.35;4.63;;;;;;;11.52;85.29;102047.91;4978191;28;20751;-84
2021/06/24 03:20:03;;;;;;;7.60;4.32;;;;;;;11.43;85.09;102037.03;4982091;28;20026;-84
2021/06/24 03:22:29;;;;;;;6.30;3.95;;;;;;;11.55;85.63;102059.22;4963606;28;20038;-84
2021/06/24 03:24:54;;;;;;;7.43;4.05;;;;;;;11.46;85.47;102049.38;4954734;28;20026;-85
2021/06/24 03:27:20;;;;;;;5.75;3.90;;;;;;;11.43;85.93;102052.31;4959650;28;20107;-85
2021/06/24 03:29:45;;;;;;;6.63;3.92;;;;;;;11.29;85.75;102031.28;4969204;28;20026;-83
2021/06/24 03:32:11;;;;;;;6.32;3.80;;;;;;;11.31;85.54;102026.63;4969494;28;20486;-83
2021/06/24 03:34:36;;;;;;;5.53;3.65;;;;;;;11.45;85.57;102047.66;4947961;28;20406;-84
2021/06/24 03:37:02;;;;;;;5.03;3.75;;;;;;;11.43;85.63;102055.03;4951251;28;20048;-83
2021/06/24 03:39:27;;;;;;;4.70;3.63;;;;;;;11.35;86.01;102036.94;4981101;28;20507;-84
2021/06/24 03:41:52;;;;;;;4.93;3.42;;;;;;;11.30;85.72;102025.78;4965958;28;20054;-85
2021/06/24 03:44:18;;;;;;;4.95;3.45;;;;;;;11.34;85.70;102029.84;4949628;28;20030;-83
2021/06/24 03:46:43;;;;;;;5.70;3.65;;;;;;;11.33;86.10;102032.72;4968109;28;20096;-83
2021/06/24 03:49:11;;;;;;;6.35;3.83;;;;;;;11.21;85.65;102024.81;4964251;28;20022;-83
2021/06/24 03:51:36;;;;;;;5.55;3.58;;;;;;;11.18;85.79;102026.97;4969574;28;20026;-83
2021/06/24 03:54:02;;;;;;;5.50;3.58;;;;;;;10.88;86.32;101993.94;4974957;28;20081;-86
2021/06/24 03:56:28;;;;;;;5.25;3.70;;;;;;;11.11;86.32;102036.59;4945871;28;20064;-85
2021/06/24 03:58:53;;;;;;;5.68;3.72;;;;;;;11.07;86.34;102029.84;4972857;28;20578;-85
2021/06/24 04:01:18;;;;;;;5.38;3.50;;;;;;;11.04;86.66;102025.59;4961393;28;20399;-85
2021/06/24 04:03:44;;;;;;;5.07;3.30;;;;;;;10.94;86.10;102014.88;4959561;28;20396;-85
2021/06/24 04:06:09;;;;;;;4.70;3.33;;;;;;;11.13;86.20;102038.16;4970149;28;20026;-84
2021/06/24 04:08:35;;;;;;;4.80;3.50;;;;;;;11.09;86.26;102027.88;4972020;28;20027;-84
2021/06/24 04:11:00;;;;;;;10.05;4.38;;;;;;;10.97;86.59;102011.03;4971669;28;20153;-84
2021/06/24 04:13:26;;;;;;;5.95;3.83;;;;;;;10.88;86.18;101993.94;4952864;28;20054;-84
2021/06/24 04:15:51;;;;;;;13.23;3.75;;;;;;;11.11;86.17;102026.69;4953649;28;20031;-84
2021/06/24 04:18:17;;;;;;;7.95;3.70;;;;;;;10.98;86.17;102012.72;4962987;28;20033;-84
2021/06/24 04:20:42;;;;;;;4.57;3.50;;;;;;;10.94;86.57;102014.03;4974621;28;20046;-84
2021/06/24 04:23:08;;;;;;;5.07;3.45;;;;;;;10.93;86.96;102010.50;4978330;28;20109;-84
2021/06/24 04:25:34;;;;;;;4.22;3.00;;;;;;;10.94;87.08;102003.25;4966714;28;20093;-85
2021/06/24 04:28:00;;;;;;;4.63;3.38;;;;;;;11.02;86.33;102014.13;4968897;28;20114;-85
2021/06/24 04:30:27;;;;;;;3.67;2.85;;;;;;;11.08;86.18;102026.16;4958103;28;20049;-85
2021/06/24 04:32:53;;;;;;;7.05;3.15;;;;;;;11.06;86.48;102036.19;4952654;28;20030;-84
2021/06/24 04:35:19;;;;;;;4.40;3.28;;;;;;;10.95;86.73;102031.84;4979272;28;20031;-84
2021/06/24 04:37:44;;;;;;;6.03;3.58;;;;;;;11.00;86.54;102027.72;4955021;28;20034;-84
2021/06/24 04:40:11;;;;;;;4.70;3.35;;;;;;;11.06;86.67;102036.19;4970640;28;20388;-85
2021/06/24 04:42:37;;;;;;;4.68;3.45;;;;;;;10.97;86.71;102019.94;4945740;28;20053;-85
2021/06/24 04:45:04;;;;;;;4.63;3.33;;;;;;;11.00;86.76;102025.03;4963913;28;20026;-85
2021/06/24 04:47:29;;;;;;;4.15;2.85;;;;;;;10.96;86.54;102015.56;4978773;28;20042;-85
2021/06/24 04:49:55;;;;;;;5.88;3.05;;;;;;;11.05;86.81;102023.75;4976360;28;20022;-85
2021/06/24 04:52:20;;;;;;;4.63;3.60;;;;;;;11.09;86.53;102027.88;4976594;28;20494;-85
2021/06/24 04:54:46;;;;;;;4.57;3.30;;;;;;;11.13;86.78;102023.84;4961560;28;20510;-84
2021/06/24 04:57:12;;;;;;;6.05;3.50;;;;;;;11.04;86.32;102000.53;4978728;28;20114;-85
2021/06/24 04:59:37;;;;;;;4.65;3.55;;;;;;;11.15;86.87;102027.25;4970017;28;20057;-84
2021/06/24 05:02:03;;;;;;;5.82;3.42;;;;;;;11.22;86.09;102028.38;4974251;28;20466;-84
2021/06/24 05:04:28;;;;;;;7.25;3.95;;;;;;;11.26;86.16;102020.81;4967876;28;20567;-84
2021/06/24 05:06:55;;;;;;;6.70;3.72;;;;;;;11.34;86.07;102032.53;4968777;28;20054;-85
2021/06/24 05:09:25;;;;;;;4.30;3.50;;;;;;;11.20;85.95;102000.75;4990526;28;20422;-84
2021/06/24 05:11:51;;;;;;;5.25;3.67;;;;;;;11.38;86.17;102027.72;4965570;28;20533;-85
2021/06/24 05:14:16;;;;;;;6.60;3.72;;;;;;;11.11;86.12;101991.69;4981249;28;20030;-85
2021/06/24 05:16:42;;;;;;;6.10;3.50;;;;;;;11.31;86.56;102030.16;4975878;28;20022;-83
2021/06/24 05:19:08;;;;;;;6.90;3.95;;;;;;;11.31;86.38;102034.69;4976859;28;20036;-84
2021/06/24 05:21:33;;;;;;;5.60;3.72;;;;;;;11.16;87.08;101999.31;4973158;28;20033;-84
2021/06/24 05:23:59;;;;;;;4.97;3.75;;;;;;;11.36;86.67;102019.78;4973216;28;20046;-84
2021/06/24 05:26:25;;;;;;;4.95;3.50;;;;;;;11.38;86.13;102022.34;4979610;28;20076;-85
2021/06/24 05:28:50;;;;;;;6.80;3.90;;;;;;;11.45;86.29;102028.78;4976270;28;20034;-84
2021/06/24 05:31:15;;;;;;;7.90;4.35;;;;;;;11.37;86.25;102023.31;4959002;28;20077;-84
2021/06/24 05:33:41;;;;;;;5.45;3.88;;;;;;;11.22;86.58;102001.44;4987399;28;20029;-84
2021/06/24 05:36:07;;;;;;;6.55;3.92;;;;;;;11.22;86.92;102009.53;4966861;28;20041;-84
2021/06/24 05:38:32;;;;;;;7.50;4.15;;;;;;;11.35;87.03;102028.00;4962506;28;20172;-86
2021/06/24 05:40:58;;;;;;;6.28;4.05;;;;;;;11.21;86.58;102002.41;4966387;28;20025;-84
2021/06/24 05:43:23;;;;;;;6.38;4.00;;;;;;;11.37;86.68;102026.84;4968954;28;20027;-85
2021/06/24 05:45:49;;;;;;;6.22;4.03;;;;;;;11.42;87.00;102018.31;4953693;28;20026;-85
2021/06/24 05:48:14;;;;;;;5.57;3.97;;;;;;;11.54;86.72;102032.44;4985291;28;20033;-84
2021/06/24 05:50:40;;;;;;;5.68;3.97;;;;;;;11.59;86.30;102035.50;4955300;28;20471;-84
2021/06/24 05:53:06;;;;;;;6.47;4.13;;;;;;;11.62;86.31;102032.53;4972537;28;21893;-85
2021/06/24 05:55:50;;;;;;;5.93;3.50;;;;;;;11.52;86.32;102004.81;4988843;28;20462;-84
2021/06/24 05:58:23;;;;;;;5.63;4.00;;;;;;;11.59;86.52;102008.56;4971339;28;20483;-84
2021/06/24 06:00:49;;;;;;;;;;;;;;;11.82;86.46;102026.00;4947104;28;20508;-84
2021/06/24 06:03:15;;;;;;;6.25;4.13;;;;;;;11.88;85.88;102022.75;4985096;28;20008;-85
2021/06/24 06:05:41;;;;;;;7.82;3.97;;;;;;;12.05;86.12;102030.97;4987280;28;20113;-84
2021/06/24 06:08:07;;;;;;;6.20;4.70;;;;;;;12.18;85.82;102030.59;4964568;28;20037;-85
2021/06/24 06:10:34;;;;;;;7.90;4.68;;;;;;;12.26;85.84;102017.19;4973389;28;20038;-84
2021/06/24 06:12:59;;;;;;;9.63;5.47;;;;;;;12.27;85.91;102003.50;4973838;28;20023;-84
2021/06/24 06:15:25;;;;;;;8.85;4.78;;;;;;;12.25;86.10;101975.00;4953327;28;20019;-85
2021/06/24 06:17:52;;;;;;;7.45;4.47;;;;;;;12.57;85.80;102004.09;4965768;28;20487;-85
2021/06/24 06:20:17;;;;;;;10.30;5.20;;;;;;;12.70;85.52;102007.22;4953152;28;20023;-84
2021/06/24 06:22:43;;;;;;;10.57;5.43;;;;;;;12.73;85.51;102012.28;4981619;28;20394;-85
2021/06/24 06:25:09;;;;;;;10.30;4.80;;;;;;;12.72;86.11;102004.34;4969217;28;20019;-84
2021/06/24 06:27:35;;;;;;;11.35;6.43;;;;;;;12.67;86.18;101994.00;4955215;28;20050;-84
2021/06/24 06:30:00;;;;;;;8.55;5.32;;;;;;;12.62;86.16;101990.97;4978303;28;20043;-85
2021/06/24 06:32:26;;;;;;;8.02;5.35;;;;;;;12.69;86.72;102000.09;4954049;28;20084;-84
2021/06/24 06:34:52;;;;;;;11.88;5.85;;;;;;;12.87;87.01;102016.25;4971985;28;20027;-84
2021/06/24 06:37:17;;;;;;;11.80;5.60;;;;;;;12.94;86.92;102003.81;4977253;28;20030;-85
2021/06/24 06:39:43;;;;;;;12.93;5.25;;;;;;;12.89;86.75;101981.00;4969941;28;20049;-84
2021/06/24 06:42:08;;;;;;;10.45;6.30;;;;;;;13.16;86.51;102001.53;4975379;28;20077;-84
2021/06/24 06:44:34;;;;;;;11.02;6.57;;;;;;;13.25;86.34;102005.09;4971683;28;20039;-84
2021/06/24 06:46:59;;;;;;;10.70;6.80;;;;;;;13.25;86.67;101999.72;4972937;28;20070;-84
2021/06/24 06:49:25;;;;;;;11.30;5.97;;;;;;;13.21;86.33;101974.88;4987086;28;20114;-84
2021/06/24 06:51:50;;;;;;;8.80;5.95;;;;;;;13.42;85.71;101993.41;4972494;28;20113;-84
2021/06/24 06:54:16;;;;;;;13.88;6.63;;;;;;;13.40;85.41;101971.94;4972465;28;20018;-84
2021/06/24 06:56:46;;;;;;;17.33;6.75;;;;;;;13.65;84.91;101982.78;4971926;28;20026;-84
2021/06/24 06:59:12;;;;;;;10.88;6.30;;;;;;;13.77;84.80;101983.34;4954308;28;20825;-84
2021/06/24 07:01:37;;;;;;;12.45;6.30;;;;;;;13.68;84.38;101962.69;4971922;28;20065;-84
2021/06/24 07:04:03;;;;;;;12.52;7.18;;;;;;;13.82;84.17;101978.28;4990743;28;20110;-85
2021/06/24 07:06:28;;;;;;;12.10;7.13;;;;;;;13.86;83.88;101966.09;4959077;28;20033;-84
2021/06/24 07:08:56;;;;;;;10.13;6.45;;;;;;;14.11;83.29;102001.28;4967464;28;20102;-84
2021/06/24 07:11:21;;;;;;;14.70;7.55;;;;;;;14.05;83.52;101976.59;4956517;28;20558;-85
2021/06/24 07:13:47;;;;;;;12.15;6.63;;;;;;;14.32;82.77;101993.50;4963946;28;20030;-84
2021/06/24 07:16:12;;;;;;;9.95;6.95;;;;;;;14.24;82.73;101969.16;4963968;28;20057;-83
2021/06/24 07:18:38;;;;;;;13.60;7.20;;;;;;;14.24;82.73;101971.84;4973522;28;20415;-85
2021/06/24 07:21:03;;;;;;;11.95;6.68;;;;;;;14.27;82.63;101966.09;4977512;28;20030;-85
2021/06/24 07:23:29;;;;;;;13.38;7.60;;;;;;;14.43;82.12;101993.13;4993823;28;20022;-85
2021/06/24 07:25:55;;;;;;;14.98;7.47;;;;;;;14.38;81.90;101984.69;4992394;28;20041;-84
2021/06/24 07:28:20;;;;;;;12.15;7.40;;;;;;;14.37;80.90;101991.13;4954986;28;20645;-84
2021/06/24 07:30:47;;;;;;;13.48;7.28;;;;;;;14.32;80.77;101988.09;4967719;28;20460;-84
2021/06/24 07:33:13;;;;;;;17.77;7.70;;;;;;;14.37;81.02;101987.53;4976938;28;20033;-86
2021/06/24 07:35:39;;;;;;;11.98;7.40;;;;;;;14.46;81.24;101990.09;4965056;28;20031;-84
2021/06/24 07:38:04;;;;;;;11.30;7.40;;;;;;;14.49;80.90;101989.72;4964949;28;20080;-83
2021/06/24 07:40:30;;;;;;;11.65;7.25;;;;;;;14.48;80.31;101989.94;4968106;28;20148;-84
2021/06/24 07:42:55;;;;;;;13.75;8.23;;;;;;;14.57;79.94;102007.03;4976240;28;20022;-84
2021/06/24 07:45:20;;;;;;;12.13;7.65;;;;;;;14.49;80.14;101997.00;4964372;28;20022;-84
2021/06/24 07:47:46;;;;;;;14.65;7.35;;;;;;;14.53;80.59;101990.28;4963549;28;20480;-84
2021/06/24 07:50:12;;;;;;;16.67;7.53;;;;;;;14.73;80.55;101997.00;4955427;28;20631;-85
2021/06/24 07:52:37;;;;;;;10.77;6.82;;;;;;;14.86;80.44;102006.44;4952124;28;20019;-84
2021/06/24 07:55:04;;;;;;;12.88;8.05;;;;;;;14.90;79.69;101994.25;4954402;28;20107;-85
2021/06/24 07:57:29;;;;;;;14.02;8.10;;;;;;;14.73;79.84;101978.03;4956537;28;20084;-85
2021/06/24 07:59:56;;;;;;;11.15;7.35;;;;;;;14.69;79.48;101981.28;4966813;28;20439;-85
2021/06/24 08:02:22;;;;;;;12.98;7.60;;;;;;;14.73;79.30;101988.88;4976317;28;20117;-85
2021/06/24 08:04:47;;;;;;;14.85;8.05;;;;;;;14.67;79.70;101983.31;4972134;28;20129;-85
2021/06/24 08:07:12;;;;;;;14.35;9.27;;;;;;;14.60;79.55;101969.63;4973126;28;20036;-86
2021/06/24 08:09:38;;;;;;;14.80;7.60;;;;;;;14.86;79.60;102003.75;4982043;28;20034;-84
2021/06/24 08:12:04;;;;;;;16.10;8.00;;;;;;;14.91;79.48;101994.06;4969941;28;20065;-84
2021/06/24 08:14:30;;;;;;;16.13;9.30;;;;;;;15.00;78.75;101991.34;4988908;28;20033;-84
2021/06/24 08:16:55;;;;;;;15.93;8.57;;;;;;;15.04;78.00;101998.09;4978290;28;20037;-84
2021/06/24 08:19:21;;;;;;;12.05;9.00;;;;;;;15.04;77.86;101981.84;4985120;28;20040;-84
2021/06/24 08:21:46;;;;;;;14.93;8.77;;;;;;;15.05;78.07;101983.53;4968042;28;20022;-85
2021/06/24 08:24:12;;;;;;;14.90;9.38;;;;;;;15.12;78.17;101998.06;4986054;28;20054;-85
2021/06/24 08:26:37;;;;;;;14.27;8.32;;;;;;;14.98;77.80;101979.81;4989675;28;20053;-84
2021/06/24 08:29:03;;;;;;;15.25;9.00;;;;;;;14.97;78.41;101984.41;4981120;28;20062;-85
2021/06/24 08:31:48;;;;;;;15.55;8.82;;;;;;;14.98;78.41;102002.34;4978572;28;20022;-85
2021/06/24 08:34:14;;;;;;;13.45;8.73;;;;;;;14.75;78.86;101971.63;4960673;28;20026;-83
2021/06/24 08:36:39;;;;;;;12.80;8.77;;;;;;;14.86;79.42;101971.25;4967821;28;20022;-86
2021/06/24 08:39:05;;;;;;;13.75;9.07;;;;;;;14.86;79.07;101973.94;4975658;28;20030;-84
2021/06/24 08:41:31;;;;;;;13.15;8.43;;;;;;;14.86;79.20;101982.06;4984437;28;20034;-84
2021/06/24 08:43:57;;;;;;;14.48;9.10;;;;;;;14.93;79.33;101978.50;4960691;28;20035;-85
2021/06/24 08:46:22;;;;;;;15.82;8.77;;;;;;;15.04;79.63;101988.09;4970274;28;20034;-84
2021/06/24 08:48:49;;;;;;;11.82;8.75;;;;;;;15.11;79.65;101982.81;4975063;28;20106;-83
2021/06/24 08:51:14;;;;;;;14.15;8.18;;;;;;;15.15;79.44;101971.47;4971818;28;20036;-84
2021/06/24 08:53:41;;;;;;;15.27;8.88;;;;;;;15.11;79.33;101948.47;4965748;28;20086;-84
2021/06/24 08:56:07;;;;;;;15.95;10.13;;;;;;;15.31;79.10;101975.94;4976963;28;20072;-84
2021/06/24 08:58:33;;;;;;;17.25;9.25;;;;;;;15.29;79.05;101977.16;4983072;28;20121;-86
2021/06/24 09:00:59;;;;;;;18.48;9.77;;;;;;;15.19;79.02;101982.81;5011708;28;20053;-84
2021/06/24 09:03:28;;;;;;;15.35;10.45;;;;;;;14.95;79.35;101954.81;4993389;28;20069;-84
2021/06/24 09:06:00;;;;;;;14.75;8.85;;;;;;;15.12;79.81;101979.09;4995872;28;20521;-84
2021/06/24 09:08:45;;;;;;;13.05;8.57;;;;;;;15.19;79.68;101982.81;4976979;28;20469;-84
2021/06/24 09:11:17;;;;;;;16.20;7.97;;;;;;;15.22;79.61;101981.59;4991347;28;20522;-84
2021/06/24 09:13:44;;;;;;;13.13;9.13;;;;;;;15.28;79.53;101979.03;4975933;28;20106;-84
2021/06/24 09:16:25;;;;;;;11.98;7.65;;;;;;;15.31;79.17;101975.13;4991132;28;20616;-85
2021/06/24 09:18:51;;;;;;;15.77;9.38;;;;;;;15.31;79.13;101958.84;4975125;28;20026;-83
2021/06/24 09:21:22;;;;;;;14.57;7.57;;;;;;;15.32;78.72;101952.41;4992249;28;20026;-86
2021/06/24 09:23:49;;;;;;;13.75;7.72;;;;;;;15.46;78.47;101958.94;4959189;28;20069;-84
2021/06/24 09:26:15;;;;;;;14.75;7.88;;;;;;;15.49;78.68;101964.00;4973641;28;20025;-84
2021/06/24 09:28:47;;;;;;;16.10;8.55;;;;;;;15.54;78.74;101956.19;4960776;28;20026;-84
2021/06/24 09:31:24;;;;;;;15.40;7.68;;;;;;;15.51;79.14;101957.38;4960321;28;20467;-84
2021/06/24 09:33:50;;;;;;;12.60;6.78;;;;;;;15.46;79.36;101950.81;4993483;28;20566;-83
2021/06/24 09:36:37;;;;;;;12.35;6.65;;;;;;;15.45;79.11;101954.53;4977370;28;20038;-84
2021/06/24 09:39:08;;;;;;;10.68;6.88;;;;;;;15.36;79.47;101945.63;4976715;28;20054;-84
2021/06/24 09:41:34;;;;;;;12.57;6.93;;;;;;;15.48;79.95;101946.03;4975832;28;20568;-84
2021/06/24 09:44:16;;;;;;;11.07;6.35;;;;;;;15.54;79.75;101953.47;4960973;28;20045;-84
2021/06/24 09:46:42;;;;;;;11.37;6.33;;;;;;;15.36;79.96;101913.09;4977303;28;20547;-83
2021/06/24 09:49:08;;;;;;;9.40;6.25;;;;;;;15.63;80.20;101956.97;4975923;28;20084;-84
2021/06/24 09:51:35;;;;;;;8.90;6.25;;;;;;;15.55;80.37;101933.47;4941692;28;20443;-85
2021/06/24 09:54:03;;;;;;;9.57;5.63;;;;;;;15.71;80.26;101959.66;4951376;28;20532;-84
2021/06/24 09:56:33;;;;;;;8.98;5.55;;;;;;;15.65;80.43;101968.50;4975624;28;20390;-84
2021/06/24 09:59:04;;;;;;;6.57;4.55;;;;;;;15.57;80.84;101967.50;4977625;28;20030;-84
2021/06/24 10:01:30;;;;;;;9.93;5.78;;;;;;;15.58;80.81;101963.75;4976766;28;20105;-84
2021/06/24 10:03:57;;;;;;;7.55;4.25;;;;;;;15.55;80.84;101960.56;4976393;28;20122;-84
2021/06/24 10:06:23;;;;;;;6.32;4.60;;;;;;;15.49;80.84;101940.44;4975013;28;20030;-83
2021/06/24 10:08:48;;;;;;;6.32;4.03;;;;;;;15.72;80.64;101955.94;4961769;28;20022;-84
2021/06/24 10:11:13;;;;;;;6.22;4.28;;;;;;;15.58;80.28;101922.25;4975769;28;20049;-84
2021/06/24 10:13:39;;;;;;;6.38;4.43;;;;;;;15.66;80.09;101941.16;4976158;28;20030;-84
2021/06/24 10:16:05;;;;;;;5.68;3.90;;;;;;;15.84;80.46;101954.47;4975055;28;20026;-85
2021/06/24 10:18:32;;;;;;;5.45;3.95;;;;;;;15.90;80.21;101950.19;4959578;28;20022;-84
2021/06/24 10:20:58;;;;;;;7.35;4.05;;;;;;;15.84;80.24;101940.91;4983831;28;20030;-85
2021/06/24 10:23:23;;;;;;;6.82;3.88;;;;;;;15.95;80.13;101942.34;4991039;28;20034;-84
2021/06/24 10:25:49;;;;;;;5.45;3.55;;;;;;;16.05;80.38;101957.34;4991472;28;20077;-84
2021/06/24 10:28:17;;;;;;;5.03;3.33;;;;;;;16.08;80.40;101958.84;4980892;28;20428;-85
2021/06/24 10:30:43;;;;;;;7.28;3.35;;;;;;;15.85;80.95;101920.03;4963563;28;20431;-84
2021/06/24 10:33:15;;;;;;;5.47;2.53;;;;;;;15.76;81.53;101922.81;4975503;28;20025;-84
2021/06/24 10:35:51;;;;;;;5.55;3.60;;;;;;;15.89;82.26;101949.34;4958681;28;20080;-84
2021/06/24 10:38:18;;;;;;;6.18;3.78;;;;;;;15.78;82.56;101955.19;4960877;28;20088;-86
2021/06/24 10:40:54;;;;;;;7.43;4.20;;;;;;;15.45;83.08;101908.47;4977558;28;20022;-85
2021/06/24 10:43:20;;;;;;;4.45;2.92;;;;;;;15.70;83.72;101953.41;4976218;28;20445;-84
2021/06/24 10:45:46;;;;;;;3.92;2.53;;;;;;;15.68;84.04;101943.72;4978062;28;20022;-85
2021/06/24 10:48:32;;;;;;;2.67;1.70;;;;;;;15.81;84.27;101955.69;4958735;28;20037;-84
2021/06/24 10:51:00;;;;;;;3.47;1.88;;;;;;;15.82;83.99;101949.25;5008311;28;20072;-84
2021/06/24 10:53:25;;;;;;;2.70;1.98;;;;;;;15.85;84.27;101945.31;4974559;28;20034;-86
2021/06/24 10:55:50;;;;;;;3.08;2.03;;;;;;;15.89;84.06;101949.34;4993182;28;20236;-84
2021/06/24 10:58:28;;;;;;;2.95;2.15;;;;;;;16.01;83.63;101947.06;4956886;28;20033;-84
2021/06/24 11:00:56;;;;;;;3.55;1.38;;;;;;;16.25;83.17;101952.25;4973855;28;20027;-83
2021/06/24 11:03:31;;;;;;;2.63;1.52;;;;;;;16.56;82.40;101943.09;4955016;28;20073;-84
2021/06/24 11:06:17;;;;;;;2.25;1.25;;;;;;;16.97;81.07;101939.13;4954951;28;20026;-84
2021/06/24 11:08:44;;;;;;;3.03;1.60;;;;;;;17.21;79.14;101927.06;4958042;28;20035;-84
2021/06/24 11:11:14;;;;;;;2.25;1.30;;;;;;;17.38;78.46;101931.22;4940304;28;20042;-84
2021/06/24 11:13:43;;;;;;;1.85;1.30;;;;;;;17.37;77.24;101932.28;4975329;28;20030;-85
2021/06/24 11:16:21;;;;;;;3.35;1.27;;;;;;;17.30;77.59;101943.06;4973135;28;20038;-84
2021/06/24 11:19:14;;;;;;;14.82;2.00;;;;;;;17.25;78.01;101933.78;4991782;28;20030;-85